sensor_id;sensor_type;location;lat;lon;timestamp;pressure;altitude;pressure_sealevel;temperature;humidity
74794;BME280;63320;50.768;6.724;2023-01-29T00:01:04;101658.19;;;-0.59;72.77
74794;BME280;63320;50.768;6.724;2023-01-29T00:03:30;101664.25;;;-0.57;72.45
74794;BME280;63320;50.768;6.724;2023-01-29T00:05:55;101651.78;;;-0.76;73.06
74794;BME280;63320;50.768;6.724;2023-01-29T00:08:22;101646.25;;;-0.54;72.43
74794;BME280;63320;50.768;6.724;2023-01-29T00:10:47;101644.53;;;-0.52;71.89
74794;BME280;63320;50.768;6.724;2023-01-29T00:13:12;101638.81;;;-0.37;71.61
74794;BME280;63320;50.768;6.724;2023-01-29T00:15:38;101636.22;;;-0.37;71.76
74794;BME280;63320;50.768;6.724;2023-01-29T00:18:03;101630.72;;;-0.55;72.09
74794;BME280;63320;50.768;6.724;2023-01-29T00:20:29;101631.00;;;-0.40;71.88
74794;BME280;63320;50.768;6.724;2023-01-29T00:22:54;101632.66;;;-0.43;71.71
74794;BME280;63320;50.768;6.724;2023-01-29T00:25:21;101629.63;;;-0.21;71.19
74794;BME280;63320;50.768;6.724;2023-01-29T00:27:47;101627.88;;;-0.23;70.52
74794;BME280;63320;50.768;6.724;2023-01-29T00:30:12;101623.28;;;-0.38;71.29
74794;BME280;63320;50.768;6.724;2023-01-29T00:32:38;101618.13;;;-0.37;71.15
74794;BME280;63320;50.768;6.724;2023-01-29T00:35:04;101612.75;;;-0.47;71.17
74794;BME280;63320;50.768;6.724;2023-01-29T00:37:29;101613.13;;;-0.73;71.97
74794;BME280;63320;50.768;6.724;2023-01-29T00:39:55;101612.47;;;-0.61;71.36
74794;BME280;63320;50.768;6.724;2023-01-29T00:42:21;101614.84;;;-0.73;71.83
74794;BME280;63320;50.768;6.724;2023-01-29T00:44:47;101617.41;;;-0.73;71.39
74794;BME280;63320;50.768;6.724;2023-01-29T00:47:12;101608.69;;;-0.80;71.93
74794;BME280;63320;50.768;6.724;2023-01-29T00:49:37;101604.81;;;-0.57;71.52
74794;BME280;63320;50.768;6.724;2023-01-29T00:52:03;101598.03;;;-0.52;71.26
74794;BME280;63320;50.768;6.724;2023-01-29T00:54:28;101597.94;;;-0.56;71.53
74794;BME280;63320;50.768;6.724;2023-01-29T00:56:54;101591.00;;;-0.60;71.69
74794;BME280;63320;50.768;6.724;2023-01-29T00:59:20;101592.84;;;-0.55;71.21
74794;BME280;63320;50.768;6.724;2023-01-29T01:01:46;101585.91;;;-0.56;71.59
74794;BME280;63320;50.768;6.724;2023-01-29T01:04:14;101585.13;;;-0.95;72.53
74794;BME280;63320;50.768;6.724;2023-01-29T01:06:40;101589.41;;;-0.52;71.26
74794;BME280;63320;50.768;6.724;2023-01-29T01:09:07;101590.66;;;-0.77;71.64
74794;BME280;63320;50.768;6.724;2023-01-29T01:11:32;101586.34;;;-0.78;71.58
74794;BME280;63320;50.768;6.724;2023-01-29T01:13:58;101587.31;;;-0.71;71.17
74794;BME280;63320;50.768;6.724;2023-01-29T01:16:24;101580.63;;;-1.04;71.72
74794;BME280;63320;50.768;6.724;2023-01-29T01:18:50;101592.53;;;-1.11;72.43
74794;BME280;63320;50.768;6.724;2023-01-29T01:21:15;101592.28;;;-0.82;71.28
74794;BME280;63320;50.768;6.724;2023-01-29T01:23:40;101586.34;;;-0.76;71.53
74794;BME280;63320;50.768;6.724;2023-01-29T01:26:09;101589.16;;;-1.08;71.75
74794;BME280;63320;50.768;6.724;2023-01-29T01:28:34;101580.78;;;-1.36;73.21
74794;BME280;63320;50.768;6.724;2023-01-29T01:31:07;101578.06;;;-1.04;72.27
74794;BME280;63320;50.768;6.724;2023-01-29T01:33:33;101584.28;;;-0.94;71.74
74794;BME280;63320;50.768;6.724;2023-01-29T01:36:00;101583.69;;;-0.81;71.84
74794;BME280;63320;50.768;6.724;2023-01-29T01:38:25;101583.09;;;-0.68;71.04
74794;BME280;63320;50.768;6.724;2023-01-29T01:40:51;101586.63;;;-0.63;70.91
74794;BME280;63320;50.768;6.724;2023-01-29T01:43:16;101592.69;;;-1.05;71.32
74794;BME280;63320;50.768;6.724;2023-01-29T01:45:41;101600.97;;;-1.19;72.83
74794;BME280;63320;50.768;6.724;2023-01-29T01:48:09;101607.09;;;-1.14;72.01
74794;BME280;63320;50.768;6.724;2023-01-29T01:50:40;101596.16;;;-1.02;72.27
74794;BME280;63320;50.768;6.724;2023-01-29T01:53:09;101605.13;;;-0.85;71.43
74794;BME280;63320;50.768;6.724;2023-01-29T01:55:37;101597.97;;;-0.98;71.74
74794;BME280;63320;50.768;6.724;2023-01-29T01:58:08;101605.41;;;-1.12;71.66
74794;BME280;63320;50.768;6.724;2023-01-29T02:00:34;101597.19;;;-0.94;71.59
74794;BME280;63320;50.768;6.724;2023-01-29T02:03:00;101596.00;;;-0.69;70.74
74794;BME280;63320;50.768;6.724;2023-01-29T02:05:27;101585.72;;;-1.07;71.36
74794;BME280;63320;50.768;6.724;2023-01-29T02:07:55;101580.88;;;-0.93;71.48
74794;BME280;63320;50.768;6.724;2023-01-29T02:10:22;101568.59;;;-1.03;71.94
74794;BME280;63320;50.768;6.724;2023-01-29T02:12:47;101566.66;;;-1.14;72.02
74794;BME280;63320;50.768;6.724;2023-01-29T02:15:13;101569.03;;;-1.24;72.12
74794;BME280;63320;50.768;6.724;2023-01-29T02:17:38;101562.59;;;-1.02;71.58
74794;BME280;63320;50.768;6.724;2023-01-29T02:20:09;101562.78;;;-0.95;71.36
74794;BME280;63320;50.768;6.724;2023-01-29T02:25:56;101589.34;;;-1.38;72.85
74794;BME280;63320;50.768;6.724;2023-01-29T02:28:35;101591.44;;;-1.22;72.55
74794;BME280;63320;50.768;6.724;2023-01-29T02:31:07;101580.53;;;-1.09;71.93
74794;BME280;63320;50.768;6.724;2023-01-29T02:33:43;101582.19;;;-1.12;72.11
74794;BME280;63320;50.768;6.724;2023-01-29T02:36:20;101577.88;;;-1.12;71.80
74794;BME280;63320;50.768;6.724;2023-01-29T02:38:57;101584.22;;;-0.96;71.63
74794;BME280;63320;50.768;6.724;2023-01-29T02:41:27;101595.09;;;-1.12;71.90
74794;BME280;63320;50.768;6.724;2023-01-29T02:44:02;101587.75;;;-0.94;71.33
74794;BME280;63320;50.768;6.724;2023-01-29T02:46:34;101584.22;;;-0.96;71.21
74794;BME280;63320;50.768;6.724;2023-01-29T02:49:08;101588.06;;;-1.19;71.67
74794;BME280;63320;50.768;6.724;2023-01-29T02:51:37;101592.94;;;-1.32;72.00
74794;BME280;63320;50.768;6.724;2023-01-29T02:54:16;101589.34;;;-1.38;71.95
74794;BME280;63320;50.768;6.724;2023-01-29T02:56:47;101588.06;;;-1.19;71.47
74794;BME280;63320;50.768;6.724;2023-01-29T02:59:19;101593.34;;;-1.13;71.41
74794;BME280;63320;50.768;6.724;2023-01-29T03:01:48;101593.81;;;-1.31;71.52
74794;BME280;63320;50.768;6.724;2023-01-29T03:04:19;101593.16;;;-1.21;71.53
74794;BME280;63320;50.768;6.724;2023-01-29T03:06:50;101600.44;;;-1.42;71.71
74794;BME280;63320;50.768;6.724;2023-01-29T03:09:21;101596.75;;;-1.90;73.73
74794;BME280;63320;50.768;6.724;2023-01-29T03:11:50;101608.75;;;-1.90;73.83
74794;BME280;63320;50.768;6.724;2023-01-29T03:14:21;101617.34;;;-2.23;74.60
74794;BME280;63320;50.768;6.724;2023-01-29T03:16:52;101629.66;;;-2.13;75.77
74794;BME280;63320;50.768;6.724;2023-01-29T03:19:19;101630.53;;;-2.44;75.10
74794;BME280;63320;50.768;6.724;2023-01-29T03:21:50;101634.63;;;-2.19;75.35
74794;BME280;63320;50.768;6.724;2023-01-29T03:24:19;101639.94;;;-2.76;76.91
74794;BME280;63320;50.768;6.724;2023-01-29T03:26:45;101630.09;;;-2.59;76.83
74794;BME280;63320;50.768;6.724;2023-01-29T03:29:11;101630.66;;;-2.71;76.76
74794;BME280;63320;50.768;6.724;2023-01-29T03:31:38;101625.72;;;-2.62;76.70
74794;BME280;63320;50.768;6.724;2023-01-29T03:34:06;101621.47;;;-1.96;74.52
74794;BME280;63320;50.768;6.724;2023-01-29T03:36:35;101614.78;;;-1.55;72.73
74794;BME280;63320;50.768;6.724;2023-01-29T03:39:01;101602.25;;;-1.74;72.81
74794;BME280;63320;50.768;6.724;2023-01-29T03:41:31;101601.00;;;-1.55;73.07
74794;BME280;63320;50.768;6.724;2023-01-29T03:44:04;101595.41;;;-1.36;71.52
74794;BME280;63320;50.768;6.724;2023-01-29T03:46:39;101591.38;;;-1.63;72.79
74794;BME280;63320;50.768;6.724;2023-01-29T03:49:11;101585.91;;;-1.39;72.20
74794;BME280;63320;50.768;6.724;2023-01-29T03:51:44;101584.06;;;-1.44;71.76
74794;BME280;63320;50.768;6.724;2023-01-29T03:54:18;101591.56;;;-1.55;72.23
74794;BME280;63320;50.768;6.724;2023-01-29T03:56:56;101599.75;;;-1.35;71.69
74794;BME280;63320;50.768;6.724;2023-01-29T03:59:33;101601.31;;;-1.78;72.45
74794;BME280;63320;50.768;6.724;2023-01-29T04:02:04;101595.06;;;-1.51;72.08
74794;BME280;63320;50.768;6.724;2023-01-29T04:04:33;101592.44;;;-1.53;72.08
74794;BME280;63320;50.768;6.724;2023-01-29T04:07:03;101585.84;;;-1.78;72.63
74794;BME280;63320;50.768;6.724;2023-01-29T04:09:33;101589.66;;;-1.97;73.50
74794;BME280;63320;50.768;6.724;2023-01-29T04:12:03;101605.69;;;-1.39;71.74
74794;BME280;63320;50.768;6.724;2023-01-29T04:14:30;101602.31;;;-1.71;72.14
74794;BME280;63320;50.768;6.724;2023-01-29T04:16:59;101602.78;;;-1.53;72.32
74794;BME280;63320;50.768;6.724;2023-01-29T04:19:27;101596.00;;;-1.84;72.25
74794;BME280;63320;50.768;6.724;2023-01-29T04:21:59;101592.59;;;-1.47;71.98
74794;BME280;63320;50.768;6.724;2023-01-29T04:24:26;101596.19;;;-1.40;71.09
74794;BME280;63320;50.768;6.724;2023-01-29T04:26:59;101583.88;;;-1.52;72.27
74794;BME280;63320;50.768;6.724;2023-01-29T04:29:37;101586.84;;;-1.71;71.84
74794;BME280;63320;50.768;6.724;2023-01-29T04:32:09;101586.94;;;-1.68;72.45
74794;BME280;63320;50.768;6.724;2023-01-29T04:34:47;101576.97;;;-1.91;72.66
74794;BME280;63320;50.768;6.724;2023-01-29T04:37:22;101573.47;;;-1.91;73.11
74794;BME280;63320;50.768;6.724;2023-01-29T04:39:55;101560.38;;;-1.64;71.77
74794;BME280;63320;50.768;6.724;2023-01-29T04:42:29;101560.56;;;-1.57;70.72
74794;BME280;63320;50.768;6.724;2023-01-29T04:45:00;101549.66;;;-1.81;72.34
74794;BME280;63320;50.768;6.724;2023-01-29T04:47:33;101551.22;;;-1.89;72.07
74794;BME280;63320;50.768;6.724;2023-01-29T04:50:01;101548.78;;;-1.83;72.74
74794;BME280;63320;50.768;6.724;2023-01-29T04:52:36;101539.66;;;-1.69;71.59
74794;BME280;63320;50.768;6.724;2023-01-29T04:55:08;101546.28;;;-1.80;72.24
74794;BME280;63320;50.768;6.724;2023-01-29T04:57:44;101540.09;;;-1.87;71.98
74794;BME280;63320;50.768;6.724;2023-01-29T05:00:15;101549.84;;;-1.75;71.90
74794;BME280;63320;50.768;6.724;2023-01-29T05:02:43;101557.94;;;-2.29;72.56
74794;BME280;63320;50.768;6.724;2023-01-29T05:05:12;101559.41;;;-1.69;71.79
74794;BME280;63320;50.768;6.724;2023-01-29T05:07:41;101558.84;;;-1.92;71.57
74794;BME280;63320;50.768;6.724;2023-01-29T05:10:08;101552.44;;;-1.73;71.38
74794;BME280;63320;50.768;6.724;2023-01-29T05:12:35;101545.44;;;-1.79;71.48
74794;BME280;63320;50.768;6.724;2023-01-29T05:15:04;101535.16;;;-1.76;71.46
74794;BME280;63320;50.768;6.724;2023-01-29T05:17:32;101531.91;;;-1.70;71.07
74794;BME280;63320;50.768;6.724;2023-01-29T05:19:57;101527.00;;;-1.58;71.06
74794;BME280;63320;50.768;6.724;2023-01-29T05:22:25;101531.31;;;-1.57;70.69
74794;BME280;63320;50.768;6.724;2023-01-29T05:24:51;101533.13;;;-1.53;70.84
74794;BME280;63320;50.768;6.724;2023-01-29T05:27:18;101536.31;;;-1.65;70.61
74794;BME280;63320;50.768;6.724;2023-01-29T05:29:45;101539.88;;;-1.60;70.69
74794;BME280;63320;50.768;6.724;2023-01-29T05:32:11;101543.84;;;-1.72;70.71
74794;BME280;63320;50.768;6.724;2023-01-29T05:34:36;101546.63;;;-1.65;71.28
74794;BME280;63320;50.768;6.724;2023-01-29T05:37:02;101547.84;;;-1.49;70.71
74794;BME280;63320;50.768;6.724;2023-01-29T05:39:28;101542.84;;;-1.79;70.98
74794;BME280;63320;50.768;6.724;2023-01-29T05:41:54;101549.66;;;-1.81;71.56
74794;BME280;63320;50.768;6.724;2023-01-29T05:44:19;101539.81;;;-1.97;71.87
74794;BME280;63320;50.768;6.724;2023-01-29T05:46:44;101536.88;;;-1.76;71.35
74794;BME280;63320;50.768;6.724;2023-01-29T05:49:10;101532.75;;;-1.70;71.01
74794;BME280;63320;50.768;6.724;2023-01-29T05:51:35;101535.78;;;-1.86;70.87
74794;BME280;63320;50.768;6.724;2023-01-29T05:54:01;101532.03;;;-1.64;71.17
74794;BME280;63320;50.768;6.724;2023-01-29T05:56:27;101538.38;;;-1.86;71.26
74794;BME280;63320;50.768;6.724;2023-01-29T05:58:53;101539.00;;;-1.96;71.48
74794;BME280;63320;50.768;6.724;2023-01-29T06:01:20;101540.28;;;-1.79;70.89
74794;BME280;63320;50.768;6.724;2023-01-29T06:03:46;101536.47;;;-1.95;71.00
74794;BME280;63320;50.768;6.724;2023-01-29T06:06:12;101536.88;;;-2.13;71.89
74794;BME280;63320;50.768;6.724;2023-01-29T06:08:38;101532.09;;;-1.97;71.24
74794;BME280;63320;50.768;6.724;2023-01-29T06:11:06;101524.03;;;-2.11;71.83
74794;BME280;63320;50.768;6.724;2023-01-29T06:13:34;101524.97;;;-2.08;71.96
74794;BME280;63320;50.768;6.724;2023-01-29T06:15:59;101523.94;;;-1.79;70.38
74794;BME280;63320;50.768;6.724;2023-01-29T06:18:24;101528.53;;;-2.02;71.00
74794;BME280;63320;50.768;6.724;2023-01-29T06:20:50;101536.13;;;-2.09;71.41
74794;BME280;63320;50.768;6.724;2023-01-29T06:23:15;101532.94;;;-1.98;71.21
74794;BME280;63320;50.768;6.724;2023-01-29T06:25:40;101530.78;;;-2.16;71.66
74794;BME280;63320;50.768;6.724;2023-01-29T06:28:06;101528.22;;;-1.80;71.15
74794;BME280;63320;50.768;6.724;2023-01-29T06:30:32;101519.66;;;-2.15;71.02
74794;BME280;63320;50.768;6.724;2023-01-29T06:32:58;101530.09;;;-1.73;70.31
74794;BME280;63320;50.768;6.724;2023-01-29T06:35:23;101525.59;;;-1.82;70.29
74794;BME280;63320;50.768;6.724;2023-01-29T06:37:49;101528.13;;;-1.85;70.36
74794;BME280;63320;50.768;6.724;2023-01-29T06:40:14;101527.97;;;-1.91;71.12
74794;BME280;63320;50.768;6.724;2023-01-29T06:42:40;101540.28;;;-2.14;71.58
74794;BME280;63320;50.768;6.724;2023-01-29T06:45:06;101539.88;;;-1.96;71.35
74794;BME280;63320;50.768;6.724;2023-01-29T06:47:33;101549.25;;;-1.99;70.87
74794;BME280;63320;50.768;6.724;2023-01-29T06:49:58;101554.66;;;-2.23;71.17
74794;BME280;63320;50.768;6.724;2023-01-29T06:52:24;101561.69;;;-1.82;70.97
74794;BME280;63320;50.768;6.724;2023-01-29T06:54:49;101567.06;;;-2.07;70.91
74794;BME280;63320;50.768;6.724;2023-01-29T06:57:14;101572.69;;;-1.89;70.82
74794;BME280;63320;50.768;6.724;2023-01-29T06:59:40;101578.72;;;-2.23;71.30
74794;BME280;63320;50.768;6.724;2023-01-29T07:02:05;101594.28;;;-2.18;71.13
74794;BME280;63320;50.768;6.724;2023-01-29T07:04:32;101595.31;;;-2.12;70.97
74794;BME280;63320;50.768;6.724;2023-01-29T07:06:58;101591.94;;;-2.11;70.78
74794;BME280;63320;50.768;6.724;2023-01-29T07:09:23;101589.59;;;-2.00;70.85
74794;BME280;63320;50.768;6.724;2023-01-29T07:11:49;101588.81;;;-1.97;70.16
74794;BME280;63320;50.768;6.724;2023-01-29T07:14:14;101587.06;;;-1.98;70.13
74794;BME280;63320;50.768;6.724;2023-01-29T07:16:39;101582.59;;;-2.05;70.74
74794;BME280;63320;50.768;6.724;2023-01-29T07:19:05;101576.97;;;-2.24;71.53
74794;BME280;63320;50.768;6.724;2023-01-29T07:21:31;101576.38;;;-2.14;70.98
74794;BME280;63320;50.768;6.724;2023-01-29T07:23:57;101567.94;;;-2.06;70.50
74794;BME280;63320;50.768;6.724;2023-01-29T07:26:22;101572.88;;;-1.81;70.34
74794;BME280;63320;50.768;6.724;2023-01-29T07:28:47;101558.09;;;-1.88;70.49
74794;BME280;63320;50.768;6.724;2023-01-29T07:31:13;101562.16;;;-1.98;70.79
74794;BME280;63320;50.768;6.724;2023-01-29T07:33:38;101558.19;;;-1.85;71.20
74794;BME280;63320;50.768;6.724;2023-01-29T07:36:06;101560.91;;;-1.79;70.52
74794;BME280;63320;50.768;6.724;2023-01-29T07:38:33;101559.75;;;-1.54;70.09
74794;BME280;63320;50.768;6.724;2023-01-29T07:40:58;101565.34;;;-1.72;70.33
74794;BME280;63320;50.768;6.724;2023-01-29T07:43:24;101560.56;;;-1.57;70.22
74794;BME280;63320;50.768;6.724;2023-01-29T07:45:49;101568.38;;;-1.53;70.58
74794;BME280;63320;50.768;6.724;2023-01-29T07:48:15;101573.06;;;-1.36;69.88
74794;BME280;63320;50.768;6.724;2023-01-29T07:50:40;101578.06;;;-1.43;69.88
74794;BME280;63320;50.768;6.724;2023-01-29T07:53:06;101578.84;;;-1.46;70.21
74794;BME280;63320;50.768;6.724;2023-01-29T07:55:33;101569.59;;;-1.36;70.44
74794;BME280;63320;50.768;6.724;2023-01-29T07:58:00;101569.94;;;-1.60;71.25
74794;BME280;63320;50.768;6.724;2023-01-29T08:00:25;101565.41;;;-1.31;71.52
74794;BME280;63320;50.768;6.724;2023-01-29T08:02:51;101574.50;;;-1.48;71.62
74794;BME280;63320;50.768;6.724;2023-01-29T08:05:16;101578.94;;;-1.43;71.62
74794;BME280;63320;50.768;6.724;2023-01-29T08:07:41;101571.09;;;-1.07;71.57
74794;BME280;63320;50.768;6.724;2023-01-29T08:10:08;101574.66;;;-1.01;70.97
74794;BME280;63320;50.768;6.724;2023-01-29T08:12:35;101571.22;;;-1.00;70.61
74794;BME280;63320;50.768;6.724;2023-01-29T08:15:00;101561.25;;;-0.84;70.65
74794;BME280;63320;50.768;6.724;2023-01-29T08:17:25;101566.34;;;-0.87;70.72
74794;BME280;63320;50.768;6.724;2023-01-29T08:19:51;101561.75;;;-1.01;71.07
74794;BME280;63320;50.768;6.724;2023-01-29T08:22:16;101569.59;;;-0.97;70.44
74794;BME280;63320;50.768;6.724;2023-01-29T08:24:41;101577.75;;;-1.19;71.66
74794;BME280;63320;50.768;6.724;2023-01-29T08:27:07;101579.16;;;-1.32;71.52
74794;BME280;63320;50.768;6.724;2023-01-29T08:29:34;101571.09;;;-1.08;71.07
74794;BME280;63320;50.768;6.724;2023-01-29T08:32:00;101572.06;;;-1.03;71.03
74794;BME280;63320;50.768;6.724;2023-01-29T08:34:25;101565.06;;;-1.09;71.46
74794;BME280;63320;50.768;6.724;2023-01-29T08:36:51;101557.00;;;-0.82;70.86
74794;BME280;63320;50.768;6.724;2023-01-29T08:39:16;101562.94;;;-0.86;71.18
74794;BME280;63320;50.768;6.724;2023-01-29T08:41:41;101568.91;;;-0.88;71.38
74794;BME280;63320;50.768;6.724;2023-01-29T08:44:07;101570.66;;;-0.86;71.24
74794;BME280;63320;50.768;6.724;2023-01-29T08:46:34;101571.50;;;-0.88;71.76
74794;BME280;63320;50.768;6.724;2023-01-29T08:48:59;101571.97;;;-0.65;70.90
74794;BME280;63320;50.768;6.724;2023-01-29T08:51:24;101568.47;;;-0.67;71.09
74794;BME280;63320;50.768;6.724;2023-01-29T08:53:50;101556.31;;;-0.73;71.24
74794;BME280;63320;50.768;6.724;2023-01-29T08:56:15;101560.59;;;-0.75;71.89
74794;BME280;63320;50.768;6.724;2023-01-29T08:58:41;101553.63;;;-0.77;71.64
74794;BME280;63320;50.768;6.724;2023-01-29T09:01:08;101559.34;;;-0.94;72.59
74794;BME280;63320;50.768;6.724;2023-01-29T09:03:35;101563.19;;;-0.73;72.22
74794;BME280;63320;50.768;6.724;2023-01-29T09:06:00;101548.63;;;-0.70;72.05
74794;BME280;63320;50.768;6.724;2023-01-29T09:08:26;101548.00;;;-0.57;71.48
74794;BME280;63320;50.768;6.724;2023-01-29T09:10:51;101553.78;;;-0.70;71.50
74794;BME280;63320;50.768;6.724;2023-01-29T09:13:16;101548.63;;;-0.70;72.00
74794;BME280;63320;50.768;6.724;2023-01-29T09:15:42;101543.59;;;-0.62;72.10
74794;BME280;63320;50.768;6.724;2023-01-29T09:18:07;101552.00;;;-0.74;72.47
74794;BME280;63320;50.768;6.724;2023-01-29T09:20:34;101562.97;;;-0.84;73.08
74794;BME280;63320;50.768;6.724;2023-01-29T09:23:03;101560.16;;;-0.51;72.25
74794;BME280;63320;50.768;6.724;2023-01-29T09:25:28;101556.41;;;-0.67;72.78
74794;BME280;63320;50.768;6.724;2023-01-29T09:27:53;101554.84;;;-0.60;72.64
74794;BME280;63320;50.768;6.724;2023-01-29T09:30:19;101562.97;;;-0.39;72.17
74794;BME280;63320;50.768;6.724;2023-01-29T09:32:44;101549.97;;;-0.43;72.15
74794;BME280;63320;50.768;6.724;2023-01-29T09:35:10;101550.78;;;-0.46;72.04
74794;BME280;63320;50.768;6.724;2023-01-29T09:37:36;101551.03;;;-0.32;71.67
74794;BME280;63320;50.768;6.724;2023-01-29T09:40:02;101545.88;;;-0.32;72.18
74794;BME280;63320;50.768;6.724;2023-01-29T09:42:34;101538.28;;;-0.21;72.08
74794;BME280;63320;50.768;6.724;2023-01-29T09:45:05;101539.22;;;-0.18;72.00
74794;BME280;63320;50.768;6.724;2023-01-29T09:47:35;101531.44;;;-0.19;71.86
74794;BME280;63320;50.768;6.724;2023-01-29T09:50:02;101538.25;;;-0.24;72.06
74794;BME280;63320;50.768;6.724;2023-01-29T09:52:32;101539.03;;;-0.29;72.16
74794;BME280;63320;50.768;6.724;2023-01-29T09:55:04;101531.28;;;-0.30;72.54
74794;BME280;63320;50.768;6.724;2023-01-29T09:57:37;101536.56;;;-0.22;72.71
74794;BME280;63320;50.768;6.724;2023-01-29T10:00:08;101526.41;;;-0.10;72.28
74794;BME280;63320;50.768;6.724;2023-01-29T10:02:58;101525.75;;;0.02;71.98
74794;BME280;63320;50.768;6.724;2023-01-29T10:08:35;101527.72;;;0.16;71.56
74794;BME280;63320;50.768;6.724;2023-01-29T10:11:12;101506.88;;;0.06;72.07
74794;BME280;63320;50.768;6.724;2023-01-29T10:13:47;101513.84;;;0.13;72.09
74794;BME280;63320;50.768;6.724;2023-01-29T10:16:24;101494.16;;;0.21;72.19
74794;BME280;63320;50.768;6.724;2023-01-29T10:21:59;101475.34;;;0.31;72.19
74794;BME280;63320;50.768;6.724;2023-01-29T10:24:35;101470.25;;;0.37;71.79
74794;BME280;63320;50.768;6.724;2023-01-29T10:27:11;101469.19;;;0.23;71.88
74794;BME280;63320;50.768;6.724;2023-01-29T10:29:40;101470.88;;;0.21;72.52
74794;BME280;63320;50.768;6.724;2023-01-29T10:32:07;101470.91;;;0.24;72.79
74794;BME280;63320;50.768;6.724;2023-01-29T10:34:40;101473.13;;;-0.02;72.73
74794;BME280;63320;50.768;6.724;2023-01-29T10:37:15;101469.09;;;0.15;72.83
74794;BME280;63320;50.768;6.724;2023-01-29T10:39:41;101447.88;;;0.41;72.05
74794;BME280;63320;50.768;6.724;2023-01-29T10:42:17;101460.03;;;0.48;71.53
74794;BME280;63320;50.768;6.724;2023-01-29T10:44:55;101462.66;;;0.51;71.48
74794;BME280;63320;50.768;6.724;2023-01-29T10:47:43;101458.31;;;0.48;71.55
74794;BME280;63320;50.768;6.724;2023-01-29T10:50:21;101470.50;;;0.59;71.60
74794;BME280;63320;50.768;6.724;2023-01-29T10:53:03;101470.69;;;0.71;71.16
74794;BME280;63320;50.768;6.724;2023-01-29T10:55:41;101465.38;;;0.62;70.92
74794;BME280;63320;50.768;6.724;2023-01-29T10:58:18;101457.06;;;0.89;70.53
74794;BME280;63320;50.768;6.724;2023-01-29T11:00:48;101445.91;;;0.91;70.48
74794;BME280;63320;50.768;6.724;2023-01-29T11:03:21;101450.31;;;1.03;70.28
74794;BME280;63320;50.768;6.724;2023-01-29T11:05:51;101443.38;;;0.97;70.63
74794;BME280;63320;50.768;6.724;2023-01-29T11:08:22;101440.84;;;1.03;70.38
74794;BME280;63320;50.768;6.724;2023-01-29T11:10:56;101436.50;;;1.01;70.37
74794;BME280;63320;50.768;6.724;2023-01-29T11:13:30;101438.19;;;0.97;70.78
74794;BME280;63320;50.768;6.724;2023-01-29T11:15:56;101429.59;;;1.01;71.13
74794;BME280;63320;50.768;6.724;2023-01-29T11:18:21;101429.66;;;1.09;70.98
74794;BME280;63320;50.768;6.724;2023-01-29T11:20:59;101432.41;;;1.21;71.15
74794;BME280;63320;50.768;6.724;2023-01-29T11:23:26;101427.06;;;1.09;71.40
74794;BME280;63320;50.768;6.724;2023-01-29T11:25:51;101422.00;;;1.20;71.12
74794;BME280;63320;50.768;6.724;2023-01-29T11:28:35;101419.41;;;1.18;71.16
74794;BME280;63320;50.768;6.724;2023-01-29T11:31:01;101415.03;;;1.14;71.05
74794;BME280;63320;50.768;6.724;2023-01-29T11:33:27;101416.03;;;1.27;70.51
74794;BME280;63320;50.768;6.724;2023-01-29T11:35:53;101404.03;;;1.38;70.42
74794;BME280;63320;50.768;6.724;2023-01-29T11:38:21;101403.94;;;1.29;71.06
74794;BME280;63320;50.768;6.724;2023-01-29T11:40:47;101393.50;;;1.17;71.30
74794;BME280;63320;50.768;6.724;2023-01-29T11:43:21;101390.13;;;1.27;71.10
74794;BME280;63320;50.768;6.724;2023-01-29T11:45:50;101381.50;;;1.29;71.34
74794;BME280;63320;50.768;6.724;2023-01-29T11:48:19;101370.31;;;1.32;71.32
74794;BME280;63320;50.768;6.724;2023-01-29T11:50:50;101367.91;;;1.58;70.77
74794;BME280;63320;50.768;6.724;2023-01-29T11:53:29;101371.31;;;1.55;70.87
74794;BME280;63320;50.768;6.724;2023-01-29T11:55:56;101367.09;;;1.70;70.98
74794;BME280;63320;50.768;6.724;2023-01-29T11:58:25;101374.16;;;1.86;70.58
74794;BME280;63320;50.768;6.724;2023-01-29T12:00:54;101366.38;;;1.86;70.85
74794;BME280;63320;50.768;6.724;2023-01-29T12:03:23;101363.81;;;1.94;70.69
74794;BME280;63320;50.768;6.724;2023-01-29T12:05:55;101360.41;;;2.04;70.42
74794;BME280;63320;50.768;6.724;2023-01-29T12:08:23;101352.63;;;2.05;70.36
74794;BME280;63320;50.768;6.724;2023-01-29T12:10:49;101350.97;;;2.17;69.90
74794;BME280;63320;50.768;6.724;2023-01-29T12:13:27;101343.09;;;2.03;70.35
74794;BME280;63320;50.768;6.724;2023-01-29T12:16:12;101339.66;;;2.05;70.91
74794;BME280;63320;50.768;6.724;2023-01-29T12:18:41;101338.00;;;2.23;70.40
74794;BME280;63320;50.768;6.724;2023-01-29T12:21:13;101335.44;;;2.35;70.11
74794;BME280;63320;50.768;6.724;2023-01-29T12:23:47;101329.34;;;2.24;69.78
74794;BME280;63320;50.768;6.724;2023-01-29T12:26:17;101324.16;;;2.16;70.71
74794;BME280;63320;50.768;6.724;2023-01-29T12:28:51;101324.19;;;2.34;70.43
74794;BME280;63320;50.768;6.724;2023-01-29T12:31:35;101319.84;;;2.29;70.52
74794;BME280;63320;50.768;6.724;2023-01-29T12:34:12;101314.69;;;2.27;70.52
74794;BME280;63320;50.768;6.724;2023-01-29T12:36:43;101304.31;;;2.33;69.76
74794;BME280;63320;50.768;6.724;2023-01-29T12:39:13;101293.91;;;2.35;70.20
74794;BME280;63320;50.768;6.724;2023-01-29T12:41:44;101272.28;;;2.30;69.06
74794;BME280;63320;50.768;6.724;2023-01-29T12:44:14;101273.16;;;2.40;69.31
74794;BME280;63320;50.768;6.724;2023-01-29T12:46:46;101274.94;;;2.51;70.10
74794;BME280;63320;50.768;6.724;2023-01-29T12:49:15;101260.22;;;2.59;69.64
74794;BME280;63320;50.768;6.724;2023-01-29T12:51:49;101269.75;;;2.51;68.77
74794;BME280;63320;50.768;6.724;2023-01-29T12:54:18;101257.66;;;2.61;68.56
74794;BME280;63320;50.768;6.724;2023-01-29T12:56:48;101255.00;;;2.44;67.85
74794;BME280;63320;50.768;6.724;2023-01-29T12:59:19;101247.19;;;2.29;66.45
74794;BME280;63320;50.768;6.724;2023-01-29T13:01:53;101251.53;;;2.34;66.14
74794;BME280;63320;50.768;6.724;2023-01-29T13:04:29;101248.06;;;2.36;65.89
74794;BME280;63320;50.768;6.724;2023-01-29T13:07:09;101236.81;;;2.30;65.39
74794;BME280;63320;50.768;6.724;2023-01-29T13:09:38;101241.13;;;2.22;64.96